Terminal Aerodrome Forecast
Issued by NWS

Home | Current Version | Previous Version | Text Only | Print | Product List | Glossary On
Versions: 1 2 3 4 5 6 7 8 9 10 11 12 13 14 15 16 17 18 19 20 21 22 23 24 25 26 27 28
031
FTUS44 KEWX 310538
TAFSSF
TAF
KSSF 310538Z 3106/0106 13005KT P6SM SKC
     FM311000 13005KT P6SM SCT008 BKN012
      TEMPO 3112/3114 4SM BR SCT004 BKN008
     FM311500 17010KT P6SM SCT030
     FM312000 14012KT P6SM SCT250=

USA.gov is the U.S. government's official web portal to all federal, state and local government web resources and services.